createdAt,value
2022-08-09T00:00:00.576Z,70.29
2022-08-09T00:00:59.888Z,70.08
2022-08-09T00:01:59.874Z,70.29
2022-08-09T00:02:59.858Z,70.29
2022-08-09T00:04:06.346Z,70.39
2022-08-09T00:06:16.230Z,70.29
2022-08-09T00:06:19.695Z,71.09
2022-08-09T00:07:00.814Z,70.49
2022-08-09T00:07:59.987Z,70.08
2022-08-09T00:08:59.829Z,70.62
2022-08-09T00:09:59.792Z,71.03
2022-08-09T00:10:59.780Z,71.03
2022-08-09T00:12:04.353Z,70.93
2022-08-09T00:12:59.769Z,71.64
2022-08-09T00:13:59.761Z,71.33
2022-08-09T00:15:06.384Z,71.13
2022-08-09T00:16:02.800Z,71.94
2022-08-09T00:16:59.730Z,71.53
2022-08-09T00:18:10.614Z,71.53
2022-08-09T00:19:01.725Z,71.33
2022-08-09T00:19:59.739Z,72.14
2022-08-09T00:20:59.704Z,71.64
2022-08-09T00:21:59.702Z,71.84
2022-08-09T00:23:10.065Z,71.88
2022-08-09T00:24:00.687Z,72.08
2022-08-09T00:24:59.699Z,72.38
2022-08-09T00:25:59.672Z,72.38
2022-08-09T00:27:00.657Z,72.48
2022-08-09T00:27:59.653Z,72.58
2022-08-09T00:28:59.648Z,72.52
2022-08-09T00:30:16.408Z,72.58
2022-08-09T00:31:00.628Z,72.52
2022-08-09T00:32:01.158Z,72.52
2022-08-09T00:33:00.611Z,72.52
2022-08-09T00:33:59.599Z,72.72
2022-08-09T00:34:59.632Z,72.82
2022-08-09T00:35:59.588Z,72.61
2022-08-09T00:36:59.585Z,72.92
2022-08-09T00:37:59.572Z,73.12
2022-08-09T00:38:59.567Z,73.43
2022-08-09T00:40:13.967Z,73.36
2022-08-09T00:41:00.581Z,73.77
2022-08-09T00:44:10.642Z,73.87
2022-08-09T00:44:14.088Z,74.48
2022-08-09T00:44:19.801Z,74.31
2022-08-09T00:45:03.550Z,73.87
2022-08-09T00:46:00.511Z,74.82
2022-08-09T00:47:04.692Z,74.92
2022-08-09T00:48:00.488Z,74.92
2022-08-09T00:49:00.869Z,74.71
2022-08-09T00:49:59.503Z,74.82
2022-08-09T00:50:59.474Z,74.82
2022-08-09T00:52:05.266Z,74.41
2022-08-09T00:53:00.451Z,74.62
2022-08-09T00:54:00.449Z,74.92
2022-08-09T00:55:00.441Z,74.82
2022-08-09T00:56:05.534Z,74.92
2022-08-09T00:57:00.428Z,75.67
2022-08-09T00:57:59.574Z,75.76
2022-08-09T00:58:59.409Z,76.17
2022-08-09T00:59:59.482Z,75.87
2022-08-09T01:00:59.499Z,76.28
2022-08-09T01:01:59.412Z,75.80
2022-08-09T01:02:59.380Z,76.28
2022-08-09T01:03:59.368Z,76.41
2022-08-09T01:04:59.396Z,76.72
2022-08-09T01:05:59.366Z,76.51
2022-08-09T01:07:00.347Z,76.37
2022-08-09T01:08:00.972Z,76.01
2022-08-09T01:08:59.776Z,76.72
2022-08-09T01:10:00.363Z,76.17
2022-08-09T01:10:59.315Z,76.48
2022-08-09T01:11:59.317Z,76.28
2022-08-09T01:12:59.316Z,76.48
2022-08-09T01:14:01.783Z,76.28
2022-08-09T01:14:59.407Z,75.87
2022-08-09T01:15:59.293Z,75.83
2022-08-09T01:16:59.274Z,75.73
2022-08-09T01:18:00.277Z,75.63
2022-08-09T01:19:01.896Z,75.22
2022-08-09T01:20:02.887Z,75.73
2022-08-09T01:20:59.255Z,75.97
2022-08-09T01:21:59.388Z,76.58
2022-08-09T01:22:59.230Z,75.97
2022-08-09T01:24:02.149Z,76.41
2022-08-09T01:25:00.797Z,76.31
2022-08-09T01:25:59.212Z,76.72
2022-08-09T01:26:59.423Z,76.41
2022-08-09T01:27:59.196Z,77.12
2022-08-09T01:28:59.189Z,76.51
2022-08-09T01:29:59.188Z,76.01
2022-08-09T01:32:29.729Z,76.61
2022-08-09T01:32:30.768Z,76.01
2022-08-09T01:33:00.155Z,76.41
2022-08-09T01:33:59.150Z,76.61
2022-08-09T01:34:59.152Z,76.92
2022-08-09T01:36:00.166Z,77.16
2022-08-09T01:36:59.129Z,77.36
2022-08-09T01:38:09.317Z,77.53
2022-08-09T01:39:00.115Z,77.53
2022-08-09T01:39:59.110Z,77.53
2022-08-09T01:41:02.960Z,77.83
2022-08-09T01:42:03.098Z,77.77
2022-08-09T01:43:00.081Z,77.97
2022-08-09T01:43:59.071Z,77.94
2022-08-09T01:44:59.249Z,77.56
2022-08-09T01:45:59.083Z,77.97
2022-08-09T01:46:59.056Z,77.94
2022-08-09T01:47:59.047Z,77.87
2022-08-09T01:48:59.839Z,77.47
2022-08-09T01:49:59.026Z,78.17
2022-08-09T01:50:59.049Z,77.73
2022-08-09T01:51:59.018Z,77.97
2022-08-09T01:52:59.999Z,78.58
2022-08-09T01:53:59.009Z,78.08
2022-08-09T01:54:58.982Z,78.38
2022-08-09T01:55:59.007Z,78.48
2022-08-09T01:56:58.975Z,78.38
2022-08-09T01:57:59.963Z,78.68
2022-08-09T01:58:58.958Z,78.99
2022-08-09T01:59:59.842Z,79.02
2022-08-09T02:00:59.021Z,79.09
2022-08-09T02:02:01.070Z,79.50
2022-08-09T02:02:59.926Z,79.43
2022-08-09T02:03:58.918Z,79.29
2022-08-09T02:05:02.727Z,79.43
2022-08-09T02:06:06.314Z,79.39
2022-08-09T02:07:02.547Z,79.23
2022-08-09T02:08:38.549Z,79.19
2022-08-09T02:08:59.979Z,78.99
2022-08-09T02:10:01.363Z,79.19
2022-08-09T02:10:58.880Z,78.58
2022-08-09T02:11:58.851Z,78.78
2022-08-09T02:12:58.847Z,78.82
2022-08-09T02:14:07.224Z,78.99
2022-08-09T02:14:59.827Z,79.39
2022-08-09T02:15:58.845Z,79.43
2022-08-09T02:17:15.086Z,79.84
2022-08-09T02:18:09.886Z,79.53
2022-08-09T02:18:59.791Z,79.29
2022-08-09T02:19:58.788Z,79.70
2022-08-09T02:20:58.866Z,79.50
2022-08-09T02:21:58.775Z,78.78
2022-08-09T02:22:58.775Z,78.89
2022-08-09T02:23:58.751Z,79.23
2022-08-09T02:24:58.754Z,79.33
2022-08-09T02:25:58.762Z,79.53
2022-08-09T02:26:58.903Z,79.88
2022-08-09T02:28:03.858Z,80.38
2022-08-09T02:29:00.719Z,80.49
2022-08-09T02:29:58.711Z,80.49
2022-08-09T02:30:58.726Z,80.29
2022-08-09T02:31:58.696Z,80.38
2022-08-09T02:32:59.427Z,80.49
2022-08-09T02:34:10.860Z,80.69
2022-08-09T02:34:59.670Z,80.79
2022-08-09T02:36:02.860Z,81.44
2022-08-09T02:36:59.654Z,81.04
2022-08-09T02:37:58.645Z,81.27
2022-08-09T02:38:58.654Z,81.34
2022-08-09T02:40:01.368Z,81.54
2022-08-09T02:40:58.645Z,81.34
2022-08-09T02:41:58.611Z,81.54
2022-08-09T02:43:00.004Z,81.34
2022-08-09T02:43:58.597Z,81.65
2022-08-09T02:44:58.588Z,81.85
2022-08-09T02:45:58.577Z,81.79
2022-08-09T02:46:58.605Z,81.68
2022-08-09T02:47:59.623Z,82.19
2022-08-09T02:48:58.614Z,82.74
2022-08-09T02:50:01.461Z,83.45
2022-08-09T02:50:58.554Z,83.49
2022-08-09T02:51:58.563Z,83.45
2022-08-09T02:52:58.531Z,83.56
2022-08-09T02:54:00.341Z,83.15
2022-08-09T02:54:58.519Z,83.29
2022-08-09T02:55:59.014Z,82.33
2022-08-09T02:56:58.527Z,83.09
2022-08-09T02:58:00.385Z,83.70
2022-08-09T02:58:59.776Z,83.18
2022-08-09T03:00:20.784Z,84.11
2022-08-09T03:00:59.536Z,83.73
2022-08-09T03:02:06.057Z,84.34
2022-08-09T03:03:00.292Z,84.25
2022-08-09T03:04:17.193Z,84.45
2022-08-09T03:04:59.440Z,84.45
2022-08-09T03:05:58.435Z,84.25
2022-08-09T03:06:59.727Z,84.45
2022-08-09T03:07:59.417Z,84.34
2022-08-09T03:08:58.412Z,85.06
2022-08-09T03:10:00.452Z,85.02
2022-08-09T03:10:58.394Z,84.92
2022-08-09T03:12:05.792Z,84.20
2022-08-09T03:12:59.383Z,84.31
2022-08-09T03:14:01.304Z,84.17
2022-08-09T03:14:58.360Z,83.45
2022-08-09T03:16:05.749Z,84.00
2022-08-09T03:16:59.376Z,84.17
2022-08-09T03:17:59.014Z,84.33
2022-08-09T03:18:58.337Z,84.41
2022-08-09T03:20:03.439Z,84.72
2022-08-09T03:20:59.317Z,84.51
2022-08-09T03:21:58.333Z,84.31
2022-08-09T03:23:14.509Z,85.33
2022-08-09T03:24:04.865Z,84.27
2022-08-09T03:25:21.671Z,83.39
2022-08-09T03:26:04.638Z,83.49
2022-08-09T03:26:59.311Z,83.76
2022-08-09T03:27:58.268Z,83.96
2022-08-09T03:28:58.265Z,83.65
2022-08-09T03:30:01.279Z,83.92
2022-08-09T03:30:59.244Z,83.96
2022-08-09T03:31:59.672Z,84.06
2022-08-09T03:32:58.231Z,83.76
2022-08-09T03:33:58.216Z,84.78
2022-08-09T03:34:58.214Z,85.02
2022-08-09T03:36:12.848Z,84.20
2022-08-09T03:37:02.236Z,84.41
2022-08-09T03:37:58.670Z,84.55
2022-08-09T03:38:58.177Z,84.96
2022-08-09T03:39:58.222Z,85.21
2022-08-09T03:40:58.421Z,85.10
2022-08-09T03:42:06.371Z,85.37
2022-08-09T03:42:59.144Z,85.41
2022-08-09T03:44:07.990Z,85.10
2022-08-09T03:44:59.136Z,85.98
2022-08-09T03:46:04.648Z,86.02
2022-08-09T03:46:59.189Z,86.22
2022-08-09T03:47:58.106Z,85.27
2022-08-09T03:48:58.101Z,85.37
2022-08-09T03:49:58.954Z,84.96
2022-08-09T03:50:58.110Z,84.86
2022-08-09T03:52:00.435Z,84.86
2022-08-09T03:53:00.071Z,84.86
2022-08-09T03:53:59.025Z,86.18
2022-08-09T03:54:58.057Z,86.29
2022-08-09T03:55:58.054Z,85.47
2022-08-09T03:56:58.346Z,86.29
2022-08-09T03:58:06.552Z,85.37
2022-08-09T03:58:59.023Z,85.10
2022-08-09T04:00:01.251Z,85.21
2022-08-09T04:00:58.044Z,86.02
2022-08-09T04:01:59.187Z,85.30
2022-08-09T04:02:57.993Z,85.96
2022-08-09T04:04:02.317Z,86.16
2022-08-09T04:04:59.231Z,86.16
2022-08-09T04:05:57.974Z,86.26
2022-08-09T04:06:58.063Z,86.26
2022-08-09T04:07:57.963Z,86.77
2022-08-09T04:08:57.945Z,87.18
2022-08-09T04:09:58.011Z,86.98
2022-08-09T04:11:01.352Z,87.08
2022-08-09T04:11:57.949Z,86.77
2022-08-09T04:12:57.914Z,86.33
2022-08-09T04:14:53.225Z,86.02
2022-08-09T04:15:01.403Z,86.53
2022-08-09T04:16:19.986Z,86.43
2022-08-09T04:16:58.914Z,87.29
2022-08-09T04:17:57.981Z,86.67
2022-08-09T04:18:57.873Z,87.08
2022-08-09T04:19:57.865Z,87.08
2022-08-09T04:20:57.856Z,87.35
2022-08-09T04:21:57.890Z,87.45
2022-08-09T04:22:57.951Z,86.94
2022-08-09T04:23:57.978Z,86.83
2022-08-09T04:24:58.838Z,86.69
2022-08-09T04:25:57.831Z,86.39
2022-08-09T04:26:57.814Z,86.49
2022-08-09T04:28:03.702Z,86.29
2022-08-09T04:28:58.343Z,86.08
2022-08-09T04:29:58.785Z,86.18
2022-08-09T04:30:57.779Z,86.18
2022-08-09T04:31:59.347Z,86.18
2022-08-09T04:32:57.788Z,86.24
2022-08-09T04:33:59.330Z,86.08
2022-08-09T04:34:57.827Z,86.15
2022-08-09T04:35:57.743Z,86.04
2022-08-09T04:36:57.732Z,84.74
2022-08-09T04:37:57.742Z,84.09
2022-08-09T04:38:57.724Z,82.66
2022-08-09T04:39:57.709Z,82.05
2022-08-09T04:40:57.702Z,82.52
2022-08-09T04:41:59.847Z,82.01
2022-08-09T04:42:57.706Z,81.60
2022-08-09T04:44:07.325Z,81.60
2022-08-09T04:45:01.563Z,81.67
2022-08-09T04:45:57.661Z,80.55
2022-08-09T04:47:04.306Z,80.11
2022-08-09T04:48:03.025Z,79.77
2022-08-09T04:48:58.637Z,80.62
2022-08-09T04:49:57.641Z,81.53
2022-08-09T04:50:58.515Z,81.37
2022-08-09T04:51:57.611Z,80.72
2022-08-09T04:52:58.623Z,80.51
2022-08-09T04:53:58.602Z,79.52
2022-08-09T04:54:59.456Z,77.62
2022-08-09T04:55:59.617Z,77.12
2022-08-09T04:56:57.594Z,76.57
2022-08-09T04:57:58.748Z,76.67
2022-08-09T04:58:58.562Z,76.31
2022-08-09T04:59:57.551Z,76.91
2022-08-09T05:00:57.631Z,76.27
2022-08-09T05:01:57.546Z,76.57
2022-08-09T05:02:57.560Z,75.69
2022-08-09T05:03:58.722Z,75.59
2022-08-09T05:04:58.517Z,74.24
2022-08-09T05:06:06.787Z,74.64
2022-08-09T05:06:58.510Z,75.18
2022-08-09T05:07:57.517Z,76.13
2022-08-09T05:09:00.787Z,76.20
2022-08-09T05:09:59.031Z,75.69
2022-08-09T05:10:57.567Z,75.82
2022-08-09T05:11:57.463Z,77.83
2022-08-09T05:12:57.484Z,77.45
2022-08-09T05:13:57.457Z,76.06
2022-08-09T05:14:57.435Z,75.15
2022-08-09T05:15:58.435Z,76.50
2022-08-09T05:16:58.988Z,74.51
2022-08-09T05:18:50.919Z,73.96
2022-08-09T05:18:59.887Z,72.48
2022-08-09T05:19:58.254Z,71.80
2022-08-09T05:20:57.389Z,70.73
2022-08-09T05:21:57.387Z,72.99
2022-08-09T05:23:54.427Z,75.65
2022-08-09T05:24:01.722Z,74.51
2022-08-09T05:24:57.389Z,75.96
2022-08-09T05:25:57.359Z,75.45
2022-08-09T05:26:57.358Z,76.20
2022-08-09T05:27:57.370Z,76.50
2022-08-09T05:28:57.363Z,75.52
2022-08-09T05:29:57.327Z,75.55
2022-08-09T05:30:57.320Z,76.09
2022-08-09T05:31:58.486Z,76.56
2022-08-09T05:32:58.330Z,75.82
2022-08-09T05:33:57.298Z,74.63
2022-08-09T05:34:57.297Z,73.89
2022-08-09T05:35:57.331Z,69.79
2022-08-09T05:36:57.283Z,68.54
2022-08-09T05:37:57.297Z,69.18
2022-08-09T05:38:57.273Z,70.53
2022-08-09T05:39:57.316Z,69.08
2022-08-09T05:40:57.247Z,68.85
2022-08-09T05:42:01.622Z,69.52
2022-08-09T05:42:58.265Z,70.02
2022-08-09T05:43:57.212Z,70.39
2022-08-09T05:44:58.216Z,69.01
2022-08-09T05:45:57.975Z,67.63
2022-08-09T05:46:57.202Z,68.17
2022-08-09T05:48:01.322Z,72.24
2022-08-09T05:48:58.832Z,71.84
2022-08-09T05:50:26.003Z,72.21
2022-08-09T05:51:16.901Z,70.86
2022-08-09T05:51:59.159Z,71.20
2022-08-09T05:52:57.156Z,71.77
2022-08-09T05:53:57.904Z,71.70
2022-08-09T05:54:57.142Z,70.93
2022-08-09T05:55:58.138Z,70.36
2022-08-09T05:56:57.140Z,71.97
2022-08-09T05:57:58.248Z,72.44
2022-08-09T05:58:58.818Z,72.71
2022-08-09T05:59:58.108Z,71.84
2022-08-09T06:00:57.097Z,70.49
2022-08-09T06:01:59.087Z,72.75
2022-08-09T06:02:57.476Z,73.35
2022-08-09T06:03:58.759Z,72.81
2022-08-09T06:04:57.072Z,72.81
2022-08-09T06:06:05.787Z,73.49
2022-08-09T06:06:58.052Z,74.43
2022-08-09T06:08:05.303Z,75.48
2022-08-09T06:08:58.058Z,73.25
2022-08-09T06:10:02.084Z,71.30
2022-08-09T06:10:59.141Z,70.02
2022-08-09T06:11:57.965Z,69.18
2022-08-09T06:13:03.051Z,67.94
2022-08-09T06:13:58.045Z,68.61
2022-08-09T06:15:01.092Z,71.20
2022-08-09T06:15:58.027Z,71.67
2022-08-09T06:16:57.248Z,71.77
2022-08-09T06:17:56.998Z,69.82
2022-08-09T06:18:57.000Z,69.21
2022-08-09T06:19:56.947Z,70.56
2022-08-09T06:20:58.311Z,69.72
2022-08-09T06:21:58.892Z,70.56
2022-08-09T06:22:56.926Z,71.06
2022-08-09T06:24:00.889Z,70.66
2022-08-09T06:24:56.912Z,69.85
2022-08-09T06:25:56.905Z,70.66
2022-08-09T06:26:56.902Z,69.82
2022-08-09T06:27:56.887Z,68.75
2022-08-09T06:29:00.912Z,67.44
2022-08-09T06:29:58.560Z,68.38
2022-08-09T06:30:57.856Z,69.52
2022-08-09T06:32:17.312Z,68.55
2022-08-09T06:33:13.720Z,67.84
2022-08-09T06:33:57.923Z,69.38
2022-08-09T06:34:56.826Z,67.71
2022-08-09T06:35:58.583Z,68.44
2022-08-09T06:36:59.697Z,68.68
2022-08-09T06:38:06.023Z,69.72
2022-08-09T06:38:57.826Z,69.99
2022-08-09T06:40:00.246Z,69.29
2022-08-09T06:40:57.783Z,69.02
2022-08-09T06:42:09.027Z,67.24
2022-08-09T06:42:57.774Z,68.38
2022-08-09T06:43:56.799Z,68.88
2022-08-09T06:44:57.333Z,68.91
2022-08-09T06:46:06.399Z,69.45
2022-08-09T06:46:57.742Z,69.09
2022-08-09T06:48:00.631Z,69.21
2022-08-09T06:49:00.059Z,69.42
2022-08-09T06:50:13.221Z,68.71
2022-08-09T06:50:57.708Z,68.68
2022-08-09T06:51:56.699Z,68.35
2022-08-09T06:52:56.690Z,66.94
2022-08-09T06:54:00.765Z,67.07
2022-08-09T06:54:56.732Z,68.55
2022-08-09T06:55:56.673Z,66.67
2022-08-09T06:56:56.664Z,65.97
2022-08-09T06:58:02.917Z,66.40
2022-08-09T07:00:48.755Z,67.34
2022-08-09T07:00:52.320Z,66.63
2022-08-09T07:00:59.677Z,67.31
2022-08-09T07:01:59.650Z,66.80
2022-08-09T07:02:57.619Z,65.90
2022-08-09T07:04:00.698Z,66.50
2022-08-09T07:04:58.630Z,65.77
2022-08-09T07:06:04.845Z,65.47
2022-08-09T07:06:59.984Z,65.59
2022-08-09T07:07:59.971Z,66.60
2022-08-09T07:08:57.573Z,66.91
2022-08-09T07:10:14.285Z,66.34
2022-08-09T07:10:58.584Z,64.93
2022-08-09T07:11:56.544Z,64.93
2022-08-09T07:12:57.160Z,64.83
2022-08-09T07:14:04.283Z,64.20
2022-08-09T07:14:57.528Z,63.93
2022-08-09T07:16:42.831Z,64.73
2022-08-09T07:16:58.364Z,64.40
2022-08-09T07:18:02.334Z,63.79
2022-08-09T07:18:57.529Z,63.73
2022-08-09T07:19:56.489Z,64.03
2022-08-09T07:20:56.485Z,64.33
2022-08-09T07:21:58.852Z,64.00
2022-08-09T07:22:56.796Z,63.46
2022-08-09T07:23:58.211Z,62.76
2022-08-09T07:24:56.447Z,63.26
2022-08-09T07:26:02.545Z,62.93
2022-08-09T07:26:57.436Z,63.33
2022-08-09T07:27:56.446Z,62.20
2022-08-09T07:29:09.070Z,62.53
2022-08-09T07:29:58.457Z,63.23
2022-08-09T07:30:56.402Z,62.60
2022-08-09T07:32:32.617Z,62.10
2022-08-09T07:32:56.390Z,62.20
2022-08-09T07:33:56.406Z,62.56
2022-08-09T07:34:56.405Z,62.93
2022-08-09T07:35:56.372Z,63.03
2022-08-09T07:36:56.364Z,63.20
2022-08-09T07:37:59.432Z,61.57
2022-08-09T07:39:00.966Z,62.33
2022-08-09T07:39:58.415Z,61.83
2022-08-09T07:41:11.924Z,61.87
2022-08-09T07:41:58.331Z,61.27
2022-08-09T07:42:56.368Z,61.10
2022-08-09T07:43:56.756Z,61.93
2022-08-09T07:45:01.434Z,62.73
2022-08-09T07:46:02.961Z,61.90
2022-08-09T07:46:56.290Z,61.87
2022-08-09T07:48:01.690Z,60.57
2022-08-09T07:49:00.217Z,60.14
2022-08-09T07:50:07.717Z,60.84
2022-08-09T07:51:10.033Z,60.44
2022-08-09T07:52:06.047Z,60.71
2022-08-09T07:53:02.240Z,60.21
2022-08-09T07:54:07.073Z,60.31
2022-08-09T07:54:57.587Z,59.61
2022-08-09T07:56:03.672Z,60.18
2022-08-09T07:56:58.467Z,59.18
2022-08-09T07:57:56.217Z,59.38
2022-08-09T07:58:56.199Z,60.18
2022-08-09T08:00:03.749Z,58.68
2022-08-09T08:01:05.894Z,59.18
2022-08-09T08:01:57.266Z,59.31
2022-08-09T08:02:56.169Z,60.01
2022-08-09T08:03:56.165Z,59.88
2022-08-09T08:04:56.183Z,58.87
2022-08-09T08:05:58.372Z,58.87
2022-08-09T08:07:00.307Z,59.05
2022-08-09T08:08:43.500Z,58.68
2022-08-09T08:09:03.450Z,59.38
2022-08-09T08:10:08.100Z,58.65
2022-08-09T08:12:08.676Z,58.92
2022-08-09T08:12:09.762Z,57.72
2022-08-09T08:12:57.093Z,57.72
2022-08-09T08:13:57.805Z,57.72
2022-08-09T08:14:57.048Z,57.29
2022-08-09T08:15:56.076Z,57.54
2022-08-09T08:17:07.404Z,56.31
2022-08-09T08:17:58.106Z,55.84
2022-08-09T08:18:56.037Z,56.37
2022-08-09T08:19:56.066Z,57.37
2022-08-09T08:20:56.053Z,56.79
2022-08-09T08:21:56.017Z,57.37
2022-08-09T08:22:56.013Z,55.34
2022-08-09T08:23:57.019Z,55.54
2022-08-09T08:24:56.028Z,55.62
2022-08-09T08:26:08.079Z,55.21
2022-08-09T08:26:57.024Z,54.89
2022-08-09T08:27:56.972Z,54.46
2022-08-09T08:28:55.967Z,54.79
2022-08-09T08:29:55.969Z,53.99
2022-08-09T08:30:56.043Z,55.19
2022-08-09T08:32:03.816Z,54.79
2022-08-09T08:32:57.954Z,54.89
2022-08-09T08:33:56.258Z,54.49
2022-08-09T08:34:58.506Z,54.86
2022-08-09T08:35:59.143Z,53.61
2022-08-09T08:36:56.905Z,52.55
2022-08-09T08:38:02.239Z,53.04
2022-08-09T08:38:56.894Z,52.92
2022-08-09T08:39:55.926Z,52.07
2022-08-09T08:40:55.903Z,53.36
2022-08-09T08:41:58.707Z,52.97
2022-08-09T08:42:55.883Z,53.39
2022-08-09T08:44:02.004Z,52.76
2022-08-09T08:44:57.878Z,52.94
2022-08-09T08:46:10.022Z,52.99
2022-08-09T08:46:59.710Z,52.76
2022-08-09T08:47:59.077Z,52.84
2022-08-09T08:48:55.815Z,52.87
2022-08-09T08:49:55.830Z,53.06
2022-08-09T08:50:55.797Z,52.64
2022-08-09T08:52:00.251Z,52.12
2022-08-09T08:52:59.906Z,51.59
2022-08-09T08:54:04.505Z,51.72
2022-08-09T08:54:56.797Z,51.32
2022-08-09T08:55:55.761Z,50.62
2022-08-09T08:56:55.761Z,49.85
2022-08-09T08:57:56.960Z,49.93
2022-08-09T08:58:55.738Z,50.10
2022-08-09T08:59:57.252Z,49.48
2022-08-09T09:00:57.074Z,50.27
2022-08-09T09:01:59.593Z,49.83
2022-08-09T09:02:56.024Z,50.82
2022-08-09T09:03:56.771Z,51.42
2022-08-09T09:04:55.722Z,49.93
2022-08-09T09:05:59.793Z,50.60
2022-08-09T09:06:56.678Z,49.48
2022-08-09T09:07:55.670Z,51.05
2022-08-09T09:08:59.784Z,50.85
2022-08-09T09:09:59.571Z,49.85
2022-08-09T09:10:56.924Z,49.93
2022-08-09T09:11:55.639Z,48.96
2022-08-09T09:12:55.626Z,49.16
2022-08-09T09:13:58.503Z,48.26
2022-08-09T09:14:55.609Z,48.36
2022-08-09T09:15:55.658Z,48.44
2022-08-09T09:16:55.622Z,47.94
2022-08-09T09:17:55.587Z,46.47
2022-08-09T09:19:10.807Z,47.34
2022-08-09T09:19:57.580Z,47.64
2022-08-09T09:20:55.618Z,48.04
2022-08-09T09:21:55.561Z,47.82
2022-08-09T09:22:55.736Z,46.72
2022-08-09T09:23:58.441Z,46.33
2022-08-09T09:26:00.407Z,48.02
2022-08-09T09:26:04.822Z,47.47
2022-08-09T09:26:56.527Z,46.28
2022-08-09T09:28:05.396Z,46.38
2022-08-09T09:29:03.622Z,46.36
2022-08-09T09:30:26.152Z,44.49
2022-08-09T09:30:57.544Z,44.02
2022-08-09T09:32:06.425Z,44.04
2022-08-09T09:32:56.480Z,44.24
2022-08-09T09:33:56.697Z,44.24
2022-08-09T09:34:55.462Z,43.82
2022-08-09T09:36:00.739Z,43.82
2022-08-09T09:36:56.448Z,43.76
2022-08-09T09:37:55.452Z,44.44
2022-08-09T09:38:55.428Z,43.92
2022-08-09T09:39:57.693Z,43.02
2022-08-09T09:40:55.446Z,42.91
2022-08-09T09:41:55.411Z,41.69
2022-08-09T09:42:55.401Z,41.20
2022-08-09T09:44:10.912Z,42.37
2022-08-09T09:44:56.387Z,41.28
2022-08-09T09:46:39.575Z,41.75
2022-08-09T09:46:57.379Z,41.67
2022-08-09T09:47:58.516Z,41.47
2022-08-09T09:48:55.381Z,41.67
2022-08-09T09:50:13.962Z,41.58
2022-08-09T09:50:56.368Z,41.17
2022-08-09T09:51:55.332Z,41.77
2022-08-09T09:52:56.254Z,42.79
2022-08-09T09:54:00.865Z,42.57
2022-08-09T09:54:56.313Z,43.16
2022-08-09T09:56:04.406Z,41.24
2022-08-09T09:58:02.377Z,41.77
2022-08-09T09:58:02.378Z,41.67
2022-08-09T09:58:56.286Z,42.05
2022-08-09T09:59:55.284Z,41.47
2022-08-09T10:00:58.764Z,41.67
2022-08-09T10:01:56.269Z,42.09
2022-08-09T10:02:55.269Z,42.57
2022-08-09T10:03:57.687Z,42.15
2022-08-09T10:04:55.238Z,42.17
2022-08-09T10:06:04.012Z,41.77
2022-08-09T10:06:56.229Z,42.17
2022-08-09T10:08:10.748Z,41.67
2022-08-09T10:08:57.792Z,41.16
2022-08-09T10:09:55.372Z,41.16
2022-08-09T10:10:55.593Z,41.71
2022-08-09T10:12:12.020Z,39.79
2022-08-09T10:12:57.554Z,38.80
2022-08-09T10:13:55.191Z,40.05
2022-08-09T10:14:55.168Z,40.17
2022-08-09T10:16:55.239Z,40.98
2022-08-09T10:17:11.380Z,40.26
2022-08-09T10:17:57.060Z,40.15
2022-08-09T10:18:55.140Z,40.11
2022-08-09T10:19:57.189Z,39.31
2022-08-09T10:20:55.151Z,41.02
2022-08-09T10:21:55.121Z,40.72
2022-08-09T10:23:00.416Z,41.24
2022-08-09T10:23:57.103Z,41.20
2022-08-09T10:24:55.098Z,40.70
2022-08-09T10:26:06.836Z,40.12
2022-08-09T10:26:56.075Z,40.62
2022-08-09T10:27:57.900Z,39.85
2022-08-09T10:29:23.251Z,40.05
2022-08-09T10:30:43.562Z,40.05
2022-08-09T10:32:35.714Z,41.06
2022-08-09T10:32:57.039Z,40.47
2022-08-09T10:34:10.453Z,40.64
2022-08-09T10:34:56.022Z,40.11
2022-08-09T10:35:55.038Z,38.88
2022-08-09T10:36:55.011Z,38.27
2022-08-09T10:37:54.998Z,37.68
2022-08-09T10:38:59.796Z,38.04
2022-08-09T10:39:56.029Z,37.72
2022-08-09T10:40:56.421Z,38.00
2022-08-09T10:41:55.039Z,38.06
2022-08-09T10:42:54.960Z,37.52
2022-08-09T10:43:59.908Z,37.68
2022-08-09T10:44:55.940Z,38.01
2022-08-09T10:45:59.995Z,38.31
2022-08-09T10:47:01.220Z,38.11
2022-08-09T10:48:26.407Z,38.80
2022-08-09T10:48:56.652Z,39.37
2022-08-09T10:49:54.917Z,37.48
2022-08-09T10:50:54.898Z,36.37
2022-08-09T10:51:54.912Z,36.59
2022-08-09T10:52:55.894Z,37.38
2022-08-09T10:53:55.131Z,37.66
2022-08-09T10:54:54.876Z,35.86
2022-08-09T10:55:57.812Z,36.16
2022-08-09T10:56:55.884Z,36.16
2022-08-09T10:57:55.666Z,35.89
2022-08-09T10:58:54.849Z,36.98
2022-08-09T10:59:58.165Z,37.63
2022-08-09T11:03:06.511Z,38.11
2022-08-09T11:03:11.853Z,37.08
2022-08-09T11:03:18.429Z,37.48
2022-08-09T11:03:59.870Z,37.87
2022-08-09T11:04:56.791Z,36.36
2022-08-09T11:06:00.364Z,35.98
2022-08-09T11:06:55.801Z,37.26
2022-08-09T11:07:58.383Z,37.66
2022-08-09T11:08:59.562Z,35.88
2022-08-09T11:09:56.538Z,37.30
2022-08-09T11:10:56.590Z,37.93
2022-08-09T11:11:55.767Z,37.15
2022-08-09T11:12:54.738Z,37.73
2022-08-09T11:13:55.073Z,38.42
2022-08-09T11:14:54.714Z,37.51
2022-08-09T11:16:04.664Z,37.38
2022-08-09T11:16:55.723Z,36.10
2022-08-09T11:18:02.706Z,36.49
2022-08-09T11:18:56.515Z,37.60
2022-08-09T11:20:10.262Z,37.76
2022-08-09T11:20:55.671Z,37.16
2022-08-09T11:21:57.229Z,36.98
2022-08-09T11:22:57.199Z,37.48
2022-08-09T11:23:54.649Z,36.59
2022-08-09T11:24:54.640Z,35.58
2022-08-09T11:25:54.935Z,36.90
2022-08-09T11:26:55.093Z,37.58
2022-08-09T11:28:07.993Z,36.08
2022-08-09T11:28:56.041Z,36.25
2022-08-09T11:30:04.599Z,35.64
2022-08-09T11:30:55.629Z,35.43
2022-08-09T11:31:54.944Z,35.83
2022-08-09T11:32:54.578Z,36.14
2022-08-09T11:33:54.572Z,37.23
2022-08-09T11:34:54.578Z,37.32
2022-08-09T11:35:54.591Z,36.14
2022-08-09T11:36:54.552Z,36.34
2022-08-09T11:37:54.546Z,36.22
2022-08-09T11:38:54.543Z,36.34
2022-08-09T11:39:54.570Z,36.14
2022-08-09T11:40:54.990Z,36.16
2022-08-09T11:41:58.566Z,37.28
2022-08-09T11:42:55.517Z,37.30
2022-08-09T11:43:54.505Z,37.40
2022-08-09T11:44:54.494Z,37.98
2022-08-09T11:45:54.529Z,37.45
2022-08-09T11:46:54.488Z,37.07
2022-08-09T11:47:54.605Z,37.60
2022-08-09T11:48:54.472Z,37.26
2022-08-09T11:50:53.815Z,37.05
2022-08-09T11:52:54.088Z,37.43
2022-08-09T11:53:02.282Z,36.32
2022-08-09T11:53:03.500Z,35.43
2022-08-09T11:54:01.639Z,35.64
2022-08-09T11:54:55.442Z,36.73
2022-08-09T11:56:02.469Z,37.34
2022-08-09T11:56:56.436Z,37.77
2022-08-09T11:58:02.242Z,37.46
2022-08-09T11:58:55.393Z,38.25
2022-08-09T11:59:54.376Z,38.47
2022-08-09T12:00:54.409Z,38.45
2022-08-09T12:02:17.680Z,39.04
2022-08-09T12:02:55.490Z,38.06
2022-08-09T12:03:57.019Z,37.87
2022-08-09T12:04:58.049Z,37.87
2022-08-09T12:05:54.374Z,37.98
2022-08-09T12:06:56.037Z,38.23
2022-08-09T12:07:54.740Z,37.46
2022-08-09T12:08:54.321Z,39.37
2022-08-09T12:09:54.321Z,37.98
2022-08-09T12:10:54.332Z,38.07
2022-08-09T12:12:03.116Z,38.19
2022-08-09T12:12:55.295Z,38.37
2022-08-09T12:14:07.483Z,37.99
2022-08-09T12:15:08.244Z,38.17
2022-08-09T12:15:55.308Z,37.66
2022-08-09T12:16:56.398Z,37.64
2022-08-09T12:17:54.253Z,36.67
2022-08-09T12:18:54.337Z,38.19
2022-08-09T12:19:59.570Z,38.47
2022-08-09T12:20:55.275Z,37.34
2022-08-09T12:21:54.228Z,36.55
2022-08-09T12:22:55.893Z,37.45
2022-08-09T12:24:06.087Z,37.24
2022-08-09T12:24:56.210Z,36.87
2022-08-09T12:25:54.246Z,37.26
2022-08-09T12:29:10.495Z,37.68
2022-08-09T12:29:12.310Z,37.18
2022-08-09T12:29:15.409Z,37.85
2022-08-09T12:30:04.522Z,38.13
2022-08-09T12:30:56.191Z,37.56
2022-08-09T12:32:02.761Z,37.56
2022-08-09T12:32:55.186Z,37.46
2022-08-09T12:34:00.768Z,37.58
2022-08-09T12:34:55.130Z,37.66
2022-08-09T12:35:54.140Z,38.23
2022-08-09T12:36:58.979Z,36.97
2022-08-09T12:37:55.098Z,36.87
2022-08-09T12:38:55.127Z,36.44
2022-08-09T12:39:54.095Z,36.65
2022-08-09T12:40:54.083Z,38.17
2022-08-09T12:41:54.110Z,37.24
2022-08-09T12:42:54.084Z,36.95
2022-08-09T12:44:05.198Z,36.95
2022-08-09T12:44:55.089Z,35.96
2022-08-09T12:45:59.999Z,36.77
2022-08-09T12:46:55.098Z,36.36
2022-08-09T12:47:54.038Z,35.96
2022-08-09T12:48:54.033Z,35.94
2022-08-09T12:49:54.040Z,36.22
2022-08-09T12:50:54.047Z,35.61
2022-08-09T12:52:02.752Z,34.91
2022-08-09T12:53:17.763Z,34.99